sensor_id;sensor_type;location;lat;lon;timestamp;P1;P2;P0
74333;PMS5003;62753;40.394;-80.022;2023-02-15T00:00:51;12;10;
74333;PMS5003;62753;40.394;-80.022;2023-02-15T00:03:16;9;8;
74333;PMS5003;62753;40.394;-80.022;2023-02-15T00:05:41;11;9;
74333;PMS5003;62753;40.394;-80.022;2023-02-15T00:08:07;7;7;
74333;PMS5003;62753;40.394;-80.022;2023-02-15T00:10:32;11;8;
74333;PMS5003;62753;40.394;-80.022;2023-02-15T00:12:59;9;9;
74333;PMS5003;62753;40.394;-80.022;2023-02-15T00:15:23;14;11;
74333;PMS5003;62753;40.394;-80.022;2023-02-15T00:17:48;9;8;
74333;PMS5003;62753;40.394;-80.022;2023-02-15T00:20:14;12;11;
74333;PMS5003;62753;40.394;-80.022;2023-02-15T00:22:39;12;11;
74333;PMS5003;62753;40.394;-80.022;2023-02-15T00:25:05;7;6;
74333;PMS5003;62753;40.394;-80.022;2023-02-15T00:27:30;9;7;
74333;PMS5003;62753;40.394;-80.022;2023-02-15T00:29:55;8;8;
74333;PMS5003;62753;40.394;-80.022;2023-02-15T00:32:21;8;8;
74333;PMS5003;62753;40.394;-80.022;2023-02-15T00:34:46;7;7;
74333;PMS5003;62753;40.394;-80.022;2023-02-15T00:37:12;8;6;
74333;PMS5003;62753;40.394;-80.022;2023-02-15T00:39:37;10;8;
74333;PMS5003;62753;40.394;-80.022;2023-02-15T00:42:02;11;10;
74333;PMS5003;62753;40.394;-80.022;2023-02-15T00:44:27;8;8;
74333;PMS5003;62753;40.394;-80.022;2023-02-15T00:46:53;13;12;
74333;PMS5003;62753;40.394;-80.022;2023-02-15T00:49:19;9;8;
74333;PMS5003;62753;40.394;-80.022;2023-02-15T00:51:44;8;7;
74333;PMS5003;62753;40.394;-80.022;2023-02-15T00:54:09;9;7;
74333;PMS5003;62753;40.394;-80.022;2023-02-15T00:56:34;6;6;
74333;PMS5003;62753;40.394;-80.022;2023-02-15T00:59:00;10;8;
74333;PMS5003;62753;40.394;-80.022;2023-02-15T01:01:26;10;7;
74333;PMS5003;62753;40.394;-80.022;2023-02-15T01:03:51;9;7;
74333;PMS5003;62753;40.394;-80.022;2023-02-15T01:06:16;10;8;
74333;PMS5003;62753;40.394;-80.022;2023-02-15T01:08:42;6;6;
74333;PMS5003;62753;40.394;-80.022;2023-02-15T01:11:08;10;8;
74333;PMS5003;62753;40.394;-80.022;2023-02-15T01:13:32;7;7;
74333;PMS5003;62753;40.394;-80.022;2023-02-15T01:15:58;16;10;
74333;PMS5003;62753;40.394;-80.022;2023-02-15T01:18:23;8;8;
74333;PMS5003;62753;40.394;-80.022;2023-02-15T01:20:49;10;9;
74333;PMS5003;62753;40.394;-80.022;2023-02-15T01:23:14;8;8;
74333;PMS5003;62753;40.394;-80.022;2023-02-15T01:25:40;8;7;
74333;PMS5003;62753;40.394;-80.022;2023-02-15T01:28:04;11;9;
74333;PMS5003;62753;40.394;-80.022;2023-02-15T01:30:30;9;6;
74333;PMS5003;62753;40.394;-80.022;2023-02-15T01:32:55;11;10;
74333;PMS5003;62753;40.394;-80.022;2023-02-15T01:35:21;12;11;
74333;PMS5003;62753;40.394;-80.022;2023-02-15T01:37:46;16;12;
74333;PMS5003;62753;40.394;-80.022;2023-02-15T01:40:13;13;11;
74333;PMS5003;62753;40.394;-80.022;2023-02-15T01:42:37;23;15;
74333;PMS5003;62753;40.394;-80.022;2023-02-15T01:45:03;19;15;
74333;PMS5003;62753;40.394;-80.022;2023-02-15T01:47:29;12;12;
74333;PMS5003;62753;40.394;-80.022;2023-02-15T01:49:54;13;13;
74333;PMS5003;62753;40.394;-80.022;2023-02-15T01:52:18;28;20;
74333;PMS5003;62753;40.394;-80.022;2023-02-15T01:54:44;17;16;
74333;PMS5003;62753;40.394;-80.022;2023-02-15T01:57:09;12;10;
74333;PMS5003;62753;40.394;-80.022;2023-02-15T01:59:34;11;10;
74333;PMS5003;62753;40.394;-80.022;2023-02-15T02:02:00;12;8;
74333;PMS5003;62753;40.394;-80.022;2023-02-15T02:04:25;9;8;
74333;PMS5003;62753;40.394;-80.022;2023-02-15T02:06:50;10;9;
74333;PMS5003;62753;40.394;-80.022;2023-02-15T02:09:16;9;7;
74333;PMS5003;62753;40.394;-80.022;2023-02-15T02:11:42;13;11;
74333;PMS5003;62753;40.394;-80.022;2023-02-15T02:14:07;10;9;
74333;PMS5003;62753;40.394;-80.022;2023-02-15T02:16:34;10;9;
74333;PMS5003;62753;40.394;-80.022;2023-02-15T02:19:01;8;8;
74333;PMS5003;62753;40.394;-80.022;2023-02-15T02:23:51;9;8;
74333;PMS5003;62753;40.394;-80.022;2023-02-15T02:26:18;11;10;
74333;PMS5003;62753;40.394;-80.022;2023-02-15T02:28:45;9;8;
74333;PMS5003;62753;40.394;-80.022;2023-02-15T02:31:10;8;7;
74333;PMS5003;62753;40.394;-80.022;2023-02-15T02:33:35;7;7;
74333;PMS5003;62753;40.394;-80.022;2023-02-15T02:35:57;7;5;
74333;PMS5003;62753;40.394;-80.022;2023-02-15T02:38:21;9;7;
74333;PMS5003;62753;40.394;-80.022;2023-02-15T02:40:48;11;10;
74333;PMS5003;62753;40.394;-80.022;2023-02-15T02:43:11;8;7;
74333;PMS5003;62753;40.394;-80.022;2023-02-15T02:45:38;13;11;
74333;PMS5003;62753;40.394;-80.022;2023-02-15T02:48:03;6;5;
74333;PMS5003;62753;40.394;-80.022;2023-02-15T02:50:28;11;9;
74333;PMS5003;62753;40.394;-80.022;2023-02-15T02:52:52;10;8;
74333;PMS5003;62753;40.394;-80.022;2023-02-15T02:55:18;8;7;
74333;PMS5003;62753;40.394;-80.022;2023-02-15T02:57:46;8;7;
74333;PMS5003;62753;40.394;-80.022;2023-02-15T03:00:08;9;8;
74333;PMS5003;62753;40.394;-80.022;2023-02-15T03:02:35;8;8;
74333;PMS5003;62753;40.394;-80.022;2023-02-15T03:05:00;9;9;
74333;PMS5003;62753;40.394;-80.022;2023-02-15T03:07:24;12;9;
74333;PMS5003;62753;40.394;-80.022;2023-02-15T03:09:50;12;11;
74333;PMS5003;62753;40.394;-80.022;2023-02-15T03:12:16;14;13;
74333;PMS5003;62753;40.394;-80.022;2023-02-15T03:14:40;14;12;
74333;PMS5003;62753;40.394;-80.022;2023-02-15T03:17:05;13;11;
74333;PMS5003;62753;40.394;-80.022;2023-02-15T03:19:31;13;12;
74333;PMS5003;62753;40.394;-80.022;2023-02-15T03:21:57;12;11;
74333;PMS5003;62753;40.394;-80.022;2023-02-15T03:24:21;11;9;
74333;PMS5003;62753;40.394;-80.022;2023-02-15T03:26:47;9;8;
74333;PMS5003;62753;40.394;-80.022;2023-02-15T03:29:12;12;11;
74333;PMS5003;62753;40.394;-80.022;2023-02-15T03:31:39;9;7;
74333;PMS5003;62753;40.394;-80.022;2023-02-15T03:34:03;6;6;
74333;PMS5003;62753;40.394;-80.022;2023-02-15T03:36:29;10;8;
74333;PMS5003;62753;40.394;-80.022;2023-02-15T03:38:56;12;8;
74333;PMS5003;62753;40.394;-80.022;2023-02-15T03:41:19;12;11;
74333;PMS5003;62753;40.394;-80.022;2023-02-15T03:43:48;7;7;
74333;PMS5003;62753;40.394;-80.022;2023-02-15T03:46:12;6;6;
74333;PMS5003;62753;40.394;-80.022;2023-02-15T03:48:37;11;10;
74333;PMS5003;62753;40.394;-80.022;2023-02-15T03:51:03;10;6;
74333;PMS5003;62753;40.394;-80.022;2023-02-15T03:53:26;5;5;
74333;PMS5003;62753;40.394;-80.022;2023-02-15T03:55:53;6;5;
74333;PMS5003;62753;40.394;-80.022;2023-02-15T03:58:17;10;8;
74333;PMS5003;62753;40.394;-80.022;2023-02-15T04:00:43;7;7;
74333;PMS5003;62753;40.394;-80.022;2023-02-15T04:03:16;6;5;
74333;PMS5003;62753;40.394;-80.022;2023-02-15T04:05:33;5;5;
74333;PMS5003;62753;40.394;-80.022;2023-02-15T04:07:58;8;6;
74333;PMS5003;62753;40.394;-80.022;2023-02-15T04:10:24;5;5;
74333;PMS5003;62753;40.394;-80.022;2023-02-15T04:12:49;4;4;
74333;PMS5003;62753;40.394;-80.022;2023-02-15T04:15:14;5;5;
74333;PMS5003;62753;40.394;-80.022;2023-02-15T04:17:40;6;5;
74333;PMS5003;62753;40.394;-80.022;2023-02-15T04:20:06;5;4;
74333;PMS5003;62753;40.394;-80.022;2023-02-15T04:22:30;6;5;
74333;PMS5003;62753;40.394;-80.022;2023-02-15T04:24:56;5;5;
74333;PMS5003;62753;40.394;-80.022;2023-02-15T04:27:21;4;4;
74333;PMS5003;62753;40.394;-80.022;2023-02-15T04:29:46;4;4;
74333;PMS5003;62753;40.394;-80.022;2023-02-15T04:32:13;4;4;
74333;PMS5003;62753;40.394;-80.022;2023-02-15T04:34:37;3;3;
74333;PMS5003;62753;40.394;-80.022;2023-02-15T04:37:02;4;4;
74333;PMS5003;62753;40.394;-80.022;2023-02-15T04:39:28;5;5;
74333;PMS5003;62753;40.394;-80.022;2023-02-15T04:41:53;4;4;
74333;PMS5003;62753;40.394;-80.022;2023-02-15T04:44:18;4;4;
74333;PMS5003;62753;40.394;-80.022;2023-02-15T04:46:44;6;4;
74333;PMS5003;62753;40.394;-80.022;2023-02-15T04:49:09;5;4;
74333;PMS5003;62753;40.394;-80.022;2023-02-15T04:51:34;3;3;
74333;PMS5003;62753;40.394;-80.022;2023-02-15T04:54:00;5;4;
74333;PMS5003;62753;40.394;-80.022;2023-02-15T04:56:25;2;2;
74333;PMS5003;62753;40.394;-80.022;2023-02-15T04:58:51;5;5;
74333;PMS5003;62753;40.394;-80.022;2023-02-15T05:01:16;4;3;
74333;PMS5003;62753;40.394;-80.022;2023-02-15T05:03:41;4;3;
74333;PMS5003;62753;40.394;-80.022;2023-02-15T05:06:07;3;3;
74333;PMS5003;62753;40.394;-80.022;2023-02-15T05:08:32;6;5;
74333;PMS5003;62753;40.394;-80.022;2023-02-15T05:10:57;4;3;
74333;PMS5003;62753;40.394;-80.022;2023-02-15T05:13:23;3;3;
74333;PMS5003;62753;40.394;-80.022;2023-02-15T05:15:49;4;4;
74333;PMS5003;62753;40.394;-80.022;2023-02-15T05:18:13;6;3;
74333;PMS5003;62753;40.394;-80.022;2023-02-15T05:20:39;5;2;
74333;PMS5003;62753;40.394;-80.022;2023-02-15T05:23:04;6;4;
74333;PMS5003;62753;40.394;-80.022;2023-02-15T05:25:30;3;3;
74333;PMS5003;62753;40.394;-80.022;2023-02-15T05:27:55;3;3;
74333;PMS5003;62753;40.394;-80.022;2023-02-15T05:30:20;3;3;
74333;PMS5003;62753;40.394;-80.022;2023-02-15T05:32:46;4;4;
74333;PMS5003;62753;40.394;-80.022;2023-02-15T05:35:12;3;3;
74333;PMS5003;62753;40.394;-80.022;2023-02-15T05:37:37;3;3;
74333;PMS5003;62753;40.394;-80.022;2023-02-15T05:40:02;5;4;
74333;PMS5003;62753;40.394;-80.022;2023-02-15T05:42:27;3;3;
74333;PMS5003;62753;40.394;-80.022;2023-02-15T05:44:53;4;4;
74333;PMS5003;62753;40.394;-80.022;2023-02-15T05:47:18;4;3;
74333;PMS5003;62753;40.394;-80.022;2023-02-15T05:49:43;5;4;
74333;PMS5003;62753;40.394;-80.022;2023-02-15T05:52:09;3;3;
74333;PMS5003;62753;40.394;-80.022;2023-02-15T05:54:34;3;2;
74333;PMS5003;62753;40.394;-80.022;2023-02-15T05:56:59;3;2;
74333;PMS5003;62753;40.394;-80.022;2023-02-15T05:59:25;5;3;
74333;PMS5003;62753;40.394;-80.022;2023-02-15T06:01:50;3;3;
74333;PMS5003;62753;40.394;-80.022;2023-02-15T06:04:15;5;5;
74333;PMS5003;62753;40.394;-80.022;2023-02-15T06:06:41;3;3;
74333;PMS5003;62753;40.394;-80.022;2023-02-15T06:09:06;4;3;
74333;PMS5003;62753;40.394;-80.022;2023-02-15T06:11:32;4;4;
74333;PMS5003;62753;40.394;-80.022;2023-02-15T06:13:57;3;3;
74333;PMS5003;62753;40.394;-80.022;2023-02-15T06:16:22;3;2;
74333;PMS5003;62753;40.394;-80.022;2023-02-15T06:18:48;4;3;
74333;PMS5003;62753;40.394;-80.022;2023-02-15T06:21:13;2;2;
74333;PMS5003;62753;40.394;-80.022;2023-02-15T06:23:38;3;3;
74333;PMS5003;62753;40.394;-80.022;2023-02-15T06:26:04;3;3;
74333;PMS5003;62753;40.394;-80.022;2023-02-15T06:28:30;3;2;
74333;PMS5003;62753;40.394;-80.022;2023-02-15T06:30:54;3;2;
74333;PMS5003;62753;40.394;-80.022;2023-02-15T06:33:20;3;2;
74333;PMS5003;62753;40.394;-80.022;2023-02-15T06:35:46;4;4;
74333;PMS5003;62753;40.394;-80.022;2023-02-15T06:38:11;3;3;
74333;PMS5003;62753;40.394;-80.022;2023-02-15T06:40:36;2;2;
74333;PMS5003;62753;40.394;-80.022;2023-02-15T06:43:01;4;3;
74333;PMS5003;62753;40.394;-80.022;2023-02-15T06:45:27;3;3;
74333;PMS5003;62753;40.394;-80.022;2023-02-15T06:47:52;3;3;
74333;PMS5003;62753;40.394;-80.022;2023-02-15T06:50:18;2;2;
74333;PMS5003;62753;40.394;-80.022;2023-02-15T06:52:43;4;3;
74333;PMS5003;62753;40.394;-80.022;2023-02-15T06:55:08;3;3;
74333;PMS5003;62753;40.394;-80.022;2023-02-15T06:57:34;3;3;
74333;PMS5003;62753;40.394;-80.022;2023-02-15T06:59:59;4;3;
74333;PMS5003;62753;40.394;-80.022;2023-02-15T07:02:24;2;2;
74333;PMS5003;62753;40.394;-80.022;2023-02-15T07:04:50;5;4;
74333;PMS5003;62753;40.394;-80.022;2023-02-15T07:07:15;5;5;
74333;PMS5003;62753;40.394;-80.022;2023-02-15T07:09:40;3;3;
74333;PMS5003;62753;40.394;-80.022;2023-02-15T07:12:06;3;1;
74333;PMS5003;62753;40.394;-80.022;2023-02-15T07:14:31;2;2;
74333;PMS5003;62753;40.394;-80.022;2023-02-15T07:16:56;3;3;
74333;PMS5003;62753;40.394;-80.022;2023-02-15T07:19:22;3;3;
74333;PMS5003;62753;40.394;-80.022;2023-02-15T07:21:47;5;4;
74333;PMS5003;62753;40.394;-80.022;2023-02-15T07:24:12;3;2;
74333;PMS5003;62753;40.394;-80.022;2023-02-15T07:26:38;3;2;
74333;PMS5003;62753;40.394;-80.022;2023-02-15T07:29:03;3;3;
74333;PMS5003;62753;40.394;-80.022;2023-02-15T07:31:29;4;4;
74333;PMS5003;62753;40.394;-80.022;2023-02-15T07:33:54;2;2;
74333;PMS5003;62753;40.394;-80.022;2023-02-15T07:36:19;2;2;
74333;PMS5003;62753;40.394;-80.022;2023-02-15T07:38:45;4;4;
74333;PMS5003;62753;40.394;-80.022;2023-02-15T07:41:11;5;4;
74333;PMS5003;62753;40.394;-80.022;2023-02-15T07:43:36;3;2;
74333;PMS5003;62753;40.394;-80.022;2023-02-15T07:46:01;4;3;
74333;PMS5003;62753;40.394;-80.022;2023-02-15T07:48:26;3;3;
74333;PMS5003;62753;40.394;-80.022;2023-02-15T07:50:52;3;3;
74333;PMS5003;62753;40.394;-80.022;2023-02-15T07:53:17;4;4;
74333;PMS5003;62753;40.394;-80.022;2023-02-15T07:55:42;4;4;
74333;PMS5003;62753;40.394;-80.022;2023-02-15T07:58:07;7;5;
74333;PMS5003;62753;40.394;-80.022;2023-02-15T08:00:33;3;3;
74333;PMS5003;62753;40.394;-80.022;2023-02-15T08:02:58;4;3;
74333;PMS5003;62753;40.394;-80.022;2023-02-15T08:05:23;4;4;
74333;PMS5003;62753;40.394;-80.022;2023-02-15T08:07:49;4;4;
74333;PMS5003;62753;40.394;-80.022;2023-02-15T08:10:14;5;5;
74333;PMS5003;62753;40.394;-80.022;2023-02-15T08:12:39;3;3;
74333;PMS5003;62753;40.394;-80.022;2023-02-15T08:15:05;4;3;
74333;PMS5003;62753;40.394;-80.022;2023-02-15T08:17:30;4;4;
74333;PMS5003;62753;40.394;-80.022;2023-02-15T08:19:56;4;4;
74333;PMS5003;62753;40.394;-80.022;2023-02-15T08:22:21;3;3;
74333;PMS5003;62753;40.394;-80.022;2023-02-15T08:24:46;5;3;
74333;PMS5003;62753;40.394;-80.022;2023-02-15T08:27:11;2;2;
74333;PMS5003;62753;40.394;-80.022;2023-02-15T08:29:37;4;3;
74333;PMS5003;62753;40.394;-80.022;2023-02-15T08:32:03;3;2;
74333;PMS5003;62753;40.394;-80.022;2023-02-15T08:34:28;4;3;
74333;PMS5003;62753;40.394;-80.022;2023-02-15T08:36:53;4;4;
74333;PMS5003;62753;40.394;-80.022;2023-02-15T08:39:18;4;3;
74333;PMS5003;62753;40.394;-80.022;2023-02-15T08:41:44;3;3;
74333;PMS5003;62753;40.394;-80.022;2023-02-15T08:44:09;4;3;
74333;PMS5003;62753;40.394;-80.022;2023-02-15T08:46:35;3;3;
74333;PMS5003;62753;40.394;-80.022;2023-02-15T08:49:00;3;3;
74333;PMS5003;62753;40.394;-80.022;2023-02-15T08:51:25;3;2;
74333;PMS5003;62753;40.394;-80.022;2023-02-15T08:53:51;2;2;
74333;PMS5003;62753;40.394;-80.022;2023-02-15T08:56:16;3;2;
74333;PMS5003;62753;40.394;-80.022;2023-02-15T08:58:41;4;4;
74333;PMS5003;62753;40.394;-80.022;2023-02-15T09:01:08;4;3;
74333;PMS5003;62753;40.394;-80.022;2023-02-15T09:03:32;5;4;
74333;PMS5003;62753;40.394;-80.022;2023-02-15T09:05:58;3;3;
74333;PMS5003;62753;40.394;-80.022;2023-02-15T09:08:22;4;3;
74333;PMS5003;62753;40.394;-80.022;2023-02-15T09:10:48;3;3;
74333;PMS5003;62753;40.394;-80.022;2023-02-15T09:13:13;3;3;
74333;PMS5003;62753;40.394;-80.022;2023-02-15T09:15:39;3;3;
74333;PMS5003;62753;40.394;-80.022;2023-02-15T09:18:04;3;3;
74333;PMS5003;62753;40.394;-80.022;2023-02-15T09:20:29;4;4;
74333;PMS5003;62753;40.394;-80.022;2023-02-15T09:22:55;4;3;
74333;PMS5003;62753;40.394;-80.022;2023-02-15T09:25:20;4;4;
74333;PMS5003;62753;40.394;-80.022;2023-02-15T09:27:46;4;4;
74333;PMS5003;62753;40.394;-80.022;2023-02-15T09:30:11;4;3;
74333;PMS5003;62753;40.394;-80.022;2023-02-15T09:32:36;5;5;
74333;PMS5003;62753;40.394;-80.022;2023-02-15T09:35:02;5;4;
74333;PMS5003;62753;40.394;-80.022;2023-02-15T09:37:27;3;3;
74333;PMS5003;62753;40.394;-80.022;2023-02-15T09:39:52;4;3;
74333;PMS5003;62753;40.394;-80.022;2023-02-15T09:42:28;4;3;
74333;PMS5003;62753;40.394;-80.022;2023-02-15T09:44:48;6;5;
74333;PMS5003;62753;40.394;-80.022;2023-02-15T09:47:14;3;3;
74333;PMS5003;62753;40.394;-80.022;2023-02-15T09:49:36;3;3;
74333;PMS5003;62753;40.394;-80.022;2023-02-15T09:52:04;6;5;
74333;PMS5003;62753;40.394;-80.022;2023-02-15T09:54:29;4;3;
74333;PMS5003;62753;40.394;-80.022;2023-02-15T09:56:52;5;4;
74333;PMS5003;62753;40.394;-80.022;2023-02-15T09:59:17;3;3;
74333;PMS5003;62753;40.394;-80.022;2023-02-15T10:01:42;3;3;
74333;PMS5003;62753;40.394;-80.022;2023-02-15T10:04:11;4;4;
74333;PMS5003;62753;40.394;-80.022;2023-02-15T10:06:34;4;4;
74333;PMS5003;62753;40.394;-80.022;2023-02-15T10:09:01;3;3;
74333;PMS5003;62753;40.394;-80.022;2023-02-15T10:11:23;4;3;
74333;PMS5003;62753;40.394;-80.022;2023-02-15T10:13:49;4;4;
74333;PMS5003;62753;40.394;-80.022;2023-02-15T10:16:15;4;4;
74333;PMS5003;62753;40.394;-80.022;2023-02-15T10:18:43;3;3;
74333;PMS5003;62753;40.394;-80.022;2023-02-15T10:21:04;4;4;
74333;PMS5003;62753;40.394;-80.022;2023-02-15T10:23:34;4;3;
74333;PMS5003;62753;40.394;-80.022;2023-02-15T10:25:56;4;3;
74333;PMS5003;62753;40.394;-80.022;2023-02-15T10:28:26;5;4;
74333;PMS5003;62753;40.394;-80.022;2023-02-15T10:30:46;4;4;
74333;PMS5003;62753;40.394;-80.022;2023-02-15T10:33:12;4;3;
74333;PMS5003;62753;40.394;-80.022;2023-02-15T10:35:38;5;4;
74333;PMS5003;62753;40.394;-80.022;2023-02-15T10:38:05;5;4;
74333;PMS5003;62753;40.394;-80.022;2023-02-15T10:40:29;4;4;
74333;PMS5003;62753;40.394;-80.022;2023-02-15T10:42:57;3;3;
74333;PMS5003;62753;40.394;-80.022;2023-02-15T10:45:20;4;3;
74333;PMS5003;62753;40.394;-80.022;2023-02-15T10:47:48;3;3;
74333;PMS5003;62753;40.394;-80.022;2023-02-15T10:50:13;4;3;
74333;PMS5003;62753;40.394;-80.022;2023-02-15T10:52:37;4;3;
74333;PMS5003;62753;40.394;-80.022;2023-02-15T10:55:02;4;3;
74333;PMS5003;62753;40.394;-80.022;2023-02-15T10:57:26;4;3;
74333;PMS5003;62753;40.394;-80.022;2023-02-15T10:59:53;4;4;
74333;PMS5003;62753;40.394;-80.022;2023-02-15T11:02:18;2;2;
74333;PMS5003;62753;40.394;-80.022;2023-02-15T11:04:48;3;3;
74333;PMS5003;62753;40.394;-80.022;2023-02-15T11:07:08;3;2;
74333;PMS5003;62753;40.394;-80.022;2023-02-15T11:09:33;4;4;
74333;PMS5003;62753;40.394;-80.022;2023-02-15T11:11:57;4;4;
74333;PMS5003;62753;40.394;-80.022;2023-02-15T11:14:23;3;2;
74333;PMS5003;62753;40.394;-80.022;2023-02-15T11:16:49;5;4;
74333;PMS5003;62753;40.394;-80.022;2023-02-15T11:19:14;4;4;
74333;PMS5003;62753;40.394;-80.022;2023-02-15T11:21:39;5;4;
74333;PMS5003;62753;40.394;-80.022;2023-02-15T11:24:07;4;4;
74333;PMS5003;62753;40.394;-80.022;2023-02-15T11:26:30;3;3;
74333;PMS5003;62753;40.394;-80.022;2023-02-15T11:28:56;3;3;
74333;PMS5003;62753;40.394;-80.022;2023-02-15T11:31:21;4;4;
74333;PMS5003;62753;40.394;-80.022;2023-02-15T11:33:45;4;3;
74333;PMS5003;62753;40.394;-80.022;2023-02-15T11:36:12;4;3;
74333;PMS5003;62753;40.394;-80.022;2023-02-15T11:38:36;3;2;
74333;PMS5003;62753;40.394;-80.022;2023-02-15T11:41:02;4;3;
74333;PMS5003;62753;40.394;-80.022;2023-02-15T11:43:31;6;3;
74333;PMS5003;62753;40.394;-80.022;2023-02-15T11:45:52;3;3;
74333;PMS5003;62753;40.394;-80.022;2023-02-15T11:48:17;2;2;
74333;PMS5003;62753;40.394;-80.022;2023-02-15T11:50:43;3;3;
74333;PMS5003;62753;40.394;-80.022;2023-02-15T11:53:10;4;4;
74333;PMS5003;62753;40.394;-80.022;2023-02-15T11:55:33;3;3;
74333;PMS5003;62753;40.394;-80.022;2023-02-15T11:58:00;5;5;
74333;PMS5003;62753;40.394;-80.022;2023-02-15T12:00:27;5;4;
74333;PMS5003;62753;40.394;-80.022;2023-02-15T12:02:50;4;4;
74333;PMS5003;62753;40.394;-80.022;2023-02-15T12:05:15;4;4;
74333;PMS5003;62753;40.394;-80.022;2023-02-15T12:07:41;3;2;
74333;PMS5003;62753;40.394;-80.022;2023-02-15T12:10:13;4;4;
74333;PMS5003;62753;40.394;-80.022;2023-02-15T12:12:32;3;3;
74333;PMS5003;62753;40.394;-80.022;2023-02-15T12:14:57;4;4;
74333;PMS5003;62753;40.394;-80.022;2023-02-15T12:17:22;4;4;
74333;PMS5003;62753;40.394;-80.022;2023-02-15T12:19:47;4;3;
74333;PMS5003;62753;40.394;-80.022;2023-02-15T12:24:38;4;3;
74333;PMS5003;62753;40.394;-80.022;2023-02-15T12:27:03;4;4;
74333;PMS5003;62753;40.394;-80.022;2023-02-15T12:29:29;2;2;
74333;PMS5003;62753;40.394;-80.022;2023-02-15T12:31:53;4;4;
74333;PMS5003;62753;40.394;-80.022;2023-02-15T12:34:21;6;6;
74333;PMS5003;62753;40.394;-80.022;2023-02-15T12:36:44;5;4;
74333;PMS5003;62753;40.394;-80.022;2023-02-15T12:39:17;2;2;
74333;PMS5003;62753;40.394;-80.022;2023-02-15T12:41:36;4;4;
74333;PMS5003;62753;40.394;-80.022;2023-02-15T12:44:03;3;3;
74333;PMS5003;62753;40.394;-80.022;2023-02-15T12:46:25;4;4;
74333;PMS5003;62753;40.394;-80.022;2023-02-15T12:51:16;3;3;
74333;PMS5003;62753;40.394;-80.022;2023-02-15T12:53:41;6;6;
74333;PMS5003;62753;40.394;-80.022;2023-02-15T12:56:08;3;3;
74333;PMS5003;62753;40.394;-80.022;2023-02-15T12:58:32;5;4;
74333;PMS5003;62753;40.394;-80.022;2023-02-15T13:03:23;4;4;
74333;PMS5003;62753;40.394;-80.022;2023-02-15T13:05:50;5;4;
74333;PMS5003;62753;40.394;-80.022;2023-02-15T13:08:14;6;5;
74333;PMS5003;62753;40.394;-80.022;2023-02-15T13:10:40;4;4;
74333;PMS5003;62753;40.394;-80.022;2023-02-15T13:13:09;3;3;
74333;PMS5003;62753;40.394;-80.022;2023-02-15T13:15:32;5;4;
74333;PMS5003;62753;40.394;-80.022;2023-02-15T13:17:55;4;3;
74333;PMS5003;62753;40.394;-80.022;2023-02-15T13:20:20;5;4;
74333;PMS5003;62753;40.394;-80.022;2023-02-15T13:22:45;4;3;
74333;PMS5003;62753;40.394;-80.022;2023-02-15T13:25:12;4;3;
74333;PMS5003;62753;40.394;-80.022;2023-02-15T13:27:36;4;4;
74333;PMS5003;62753;40.394;-80.022;2023-02-15T13:30:02;1;1;
74333;PMS5003;62753;40.394;-80.022;2023-02-15T13:32:28;3;3;
74333;PMS5003;62753;40.394;-80.022;2023-02-15T13:34:52;4;4;
74333;PMS5003;62753;40.394;-80.022;2023-02-15T13:37:18;3;3;
74333;PMS5003;62753;40.394;-80.022;2023-02-15T13:39:43;4;3;
74333;PMS5003;62753;40.394;-80.022;2023-02-15T13:42:13;4;4;
74333;PMS5003;62753;40.394;-80.022;2023-02-15T13:44:39;4;4;
74333;PMS5003;62753;40.394;-80.022;2023-02-15T13:47:02;3;2;
74333;PMS5003;62753;40.394;-80.022;2023-02-15T13:49:28;4;4;
74333;PMS5003;62753;40.394;-80.022;2023-02-15T13:51:51;4;4;
74333;PMS5003;62753;40.394;-80.022;2023-02-15T13:56:43;2;2;
74333;PMS5003;62753;40.394;-80.022;2023-02-15T13:59:11;3;3;
74333;PMS5003;62753;40.394;-80.022;2023-02-15T14:01:32;4;4;
74333;PMS5003;62753;40.394;-80.022;2023-02-15T14:06:25;5;4;
74333;PMS5003;62753;40.394;-80.022;2023-02-15T14:08:51;3;3;
74333;PMS5003;62753;40.394;-80.022;2023-02-15T14:11:12;4;4;
74333;PMS5003;62753;40.394;-80.022;2023-02-15T14:13:49;3;3;
74333;PMS5003;62753;40.394;-80.022;2023-02-15T14:16:03;5;4;
74333;PMS5003;62753;40.394;-80.022;2023-02-15T14:18:29;4;4;
74333;PMS5003;62753;40.394;-80.022;2023-02-15T14:20:57;3;3;
74333;PMS5003;62753;40.394;-80.022;2023-02-15T14:23:21;4;4;
74333;PMS5003;62753;40.394;-80.022;2023-02-15T14:25:44;4;4;
74333;PMS5003;62753;40.394;-80.022;2023-02-15T14:28:09;4;4;
74333;PMS5003;62753;40.394;-80.022;2023-02-15T14:30:34;3;3;
74333;PMS5003;62753;40.394;-80.022;2023-02-15T14:33:00;4;3;
74333;PMS5003;62753;40.394;-80.022;2023-02-15T14:35:25;5;5;
74333;PMS5003;62753;40.394;-80.022;2023-02-15T14:37:50;4;3;
74333;PMS5003;62753;40.394;-80.022;2023-02-15T14:40:17;5;5;
74333;PMS5003;62753;40.394;-80.022;2023-02-15T14:42:40;4;4;
74333;PMS5003;62753;40.394;-80.022;2023-02-15T14:45:06;4;4;
74333;PMS5003;62753;40.394;-80.022;2023-02-15T14:47:32;6;5;
74333;PMS5003;62753;40.394;-80.022;2023-02-15T14:49:55;2;2;
74333;PMS5003;62753;40.394;-80.022;2023-02-15T14:52:21;4;4;
74333;PMS5003;62753;40.394;-80.022;2023-02-15T14:54:53;4;4;
74333;PMS5003;62753;40.394;-80.022;2023-02-15T14:59:37;5;4;
74333;PMS5003;62753;40.394;-80.022;2023-02-15T15:02:03;7;4;
74333;PMS5003;62753;40.394;-80.022;2023-02-15T15:04:29;4;4;
74333;PMS5003;62753;40.394;-80.022;2023-02-15T15:09:19;5;4;
74333;PMS5003;62753;40.394;-80.022;2023-02-15T15:11:44;5;4;
74333;PMS5003;62753;40.394;-80.022;2023-02-15T15:14:08;6;6;
74333;PMS5003;62753;40.394;-80.022;2023-02-15T15:18:59;5;5;
74333;PMS5003;62753;40.394;-80.022;2023-02-15T15:23:49;6;5;
74333;PMS5003;62753;40.394;-80.022;2023-02-15T15:26:22;5;4;
74333;PMS5003;62753;40.394;-80.022;2023-02-15T15:31:06;4;4;
74333;PMS5003;62753;40.394;-80.022;2023-02-15T15:36:01;4;4;
74333;PMS5003;62753;40.394;-80.022;2023-02-15T15:38:26;6;6;
74333;PMS5003;62753;40.394;-80.022;2023-02-15T15:45:40;4;3;
74333;PMS5003;62753;40.394;-80.022;2023-02-15T15:48:07;7;4;
74333;PMS5003;62753;40.394;-80.022;2023-02-15T15:50:27;4;4;
74333;PMS5003;62753;40.394;-80.022;2023-02-15T15:52:53;7;5;
74333;PMS5003;62753;40.394;-80.022;2023-02-15T15:55:18;5;4;
74333;PMS5003;62753;40.394;-80.022;2023-02-15T15:57:44;7;4;
74333;PMS5003;62753;40.394;-80.022;2023-02-15T16:02:33;4;4;
74333;PMS5003;62753;40.394;-80.022;2023-02-15T16:07:24;3;3;
74333;PMS5003;62753;40.394;-80.022;2023-02-15T16:09:55;6;4;
74333;PMS5003;62753;40.394;-80.022;2023-02-15T16:12:15;5;5;
74333;PMS5003;62753;40.394;-80.022;2023-02-15T16:14:40;6;5;
74333;PMS5003;62753;40.394;-80.022;2023-02-15T16:17:05;6;5;
74333;PMS5003;62753;40.394;-80.022;2023-02-15T16:19:32;5;4;
74333;PMS5003;62753;40.394;-80.022;2023-02-15T16:21:55;3;3;
74333;PMS5003;62753;40.394;-80.022;2023-02-15T16:24:24;7;6;
74333;PMS5003;62753;40.394;-80.022;2023-02-15T16:26:50;4;4;
74333;PMS5003;62753;40.394;-80.022;2023-02-15T16:29:13;3;3;
74333;PMS5003;62753;40.394;-80.022;2023-02-15T16:31:37;4;3;
74333;PMS5003;62753;40.394;-80.022;2023-02-15T16:34:07;3;3;
74333;PMS5003;62753;40.394;-80.022;2023-02-15T16:36:28;5;5;
74333;PMS5003;62753;40.394;-80.022;2023-02-15T16:41:20;5;4;